sensor_id;sensor_type;location;lat;lon;timestamp;P1;durP1;ratioP1;P2;durP2;ratioP2
68144;SDS011;55400;51.824;-0.196;2022-08-19T00:04:35;3.10;;;1.48;;
68144;SDS011;55400;51.824;-0.196;2022-08-19T00:07:06;2.72;;;1.35;;
68144;SDS011;55400;51.824;-0.196;2022-08-19T00:09:39;1.83;;;1.40;;
68144;SDS011;55400;51.824;-0.196;2022-08-19T00:12:07;4.15;;;1.58;;
68144;SDS011;55400;51.824;-0.196;2022-08-19T00:14:48;7.28;;;1.63;;
68144;SDS011;55400;51.824;-0.196;2022-08-19T00:17:16;1.63;;;1.27;;
68144;SDS011;55400;51.824;-0.196;2022-08-19T00:19:50;4.90;;;1.70;;
68144;SDS011;55400;51.824;-0.196;2022-08-19T00:22:18;1.67;;;1.33;;
68144;SDS011;55400;51.824;-0.196;2022-08-19T00:24:47;1.98;;;1.20;;
68144;SDS011;55400;51.824;-0.196;2022-08-19T00:27:16;5.53;;;1.50;;
68144;SDS011;55400;51.824;-0.196;2022-08-19T00:29:51;3.22;;;1.88;;
68144;SDS011;55400;51.824;-0.196;2022-08-19T00:32:19;2.85;;;1.42;;
68144;SDS011;55400;51.824;-0.196;2022-08-19T00:34:50;6.63;;;1.73;;
68144;SDS011;55400;51.824;-0.196;2022-08-19T00:37:24;3.58;;;1.30;;
68144;SDS011;55400;51.824;-0.196;2022-08-19T00:39:52;2.58;;;1.33;;
68144;SDS011;55400;51.824;-0.196;2022-08-19T00:42:27;4.22;;;1.42;;
68144;SDS011;55400;51.824;-0.196;2022-08-19T00:44:56;2.05;;;1.30;;
68144;SDS011;55400;51.824;-0.196;2022-08-19T00:47:33;4.90;;;1.67;;
68144;SDS011;55400;51.824;-0.196;2022-08-19T00:50:05;2.85;;;1.30;;
68144;SDS011;55400;51.824;-0.196;2022-08-19T00:52:38;3.20;;;1.30;;
68144;SDS011;55400;51.824;-0.196;2022-08-19T00:55:22;4.40;;;1.50;;
68144;SDS011;55400;51.824;-0.196;2022-08-19T00:58:06;2.13;;;1.33;;
68144;SDS011;55400;51.824;-0.196;2022-08-19T01:00:45;2.60;;;1.50;;
68144;SDS011;55400;51.824;-0.196;2022-08-19T01:03:18;2.88;;;1.27;;
68144;SDS011;55400;51.824;-0.196;2022-08-19T01:05:50;3.28;;;1.70;;
68144;SDS011;55400;51.824;-0.196;2022-08-19T01:08:22;1.48;;;1.30;;
68144;SDS011;55400;51.824;-0.196;2022-08-19T01:10:54;1.25;;;1.13;;
68144;SDS011;55400;51.824;-0.196;2022-08-19T01:13:24;4.72;;;1.80;;
68144;SDS011;55400;51.824;-0.196;2022-08-19T01:16:14;3.72;;;1.55;;
68144;SDS011;55400;51.824;-0.196;2022-08-19T01:18:50;2.85;;;1.58;;
68144;SDS011;55400;51.824;-0.196;2022-08-19T01:21:32;2.35;;;1.23;;
68144;SDS011;55400;51.824;-0.196;2022-08-19T01:24:08;1.20;;;1.10;;
68144;SDS011;55400;51.824;-0.196;2022-08-19T01:26:47;2.92;;;1.48;;
68144;SDS011;55400;51.824;-0.196;2022-08-19T01:29:16;2.30;;;1.52;;
68144;SDS011;55400;51.824;-0.196;2022-08-19T01:31:45;2.40;;;1.70;;
68144;SDS011;55400;51.824;-0.196;2022-08-19T01:34:19;4.13;;;1.23;;
68144;SDS011;55400;51.824;-0.196;2022-08-19T01:36:47;1.55;;;1.40;;
68144;SDS011;55400;51.824;-0.196;2022-08-19T01:39:18;2.15;;;1.40;;
68144;SDS011;55400;51.824;-0.196;2022-08-19T01:41:50;2.15;;;1.40;;
68144;SDS011;55400;51.824;-0.196;2022-08-19T01:44:23;1.92;;;1.50;;
68144;SDS011;55400;51.824;-0.196;2022-08-19T01:46:52;2.53;;;1.50;;
68144;SDS011;55400;51.824;-0.196;2022-08-19T01:49:22;2.75;;;1.73;;
68144;SDS011;55400;51.824;-0.196;2022-08-19T01:51:52;2.75;;;1.42;;
68144;SDS011;55400;51.824;-0.196;2022-08-19T01:54:24;2.25;;;1.50;;
68144;SDS011;55400;51.824;-0.196;2022-08-19T01:57:05;1.77;;;1.42;;
68144;SDS011;55400;51.824;-0.196;2022-08-19T01:59:40;5.10;;;1.80;;
68144;SDS011;55400;51.824;-0.196;2022-08-19T02:02:09;2.10;;;1.20;;
68144;SDS011;55400;51.824;-0.196;2022-08-19T02:04:46;4.10;;;2.03;;
68144;SDS011;55400;51.824;-0.196;2022-08-19T02:07:14;2.63;;;1.48;;
68144;SDS011;55400;51.824;-0.196;2022-08-19T02:09:45;3.78;;;2.13;;
68144;SDS011;55400;51.824;-0.196;2022-08-19T02:12:16;7.75;;;1.95;;
68144;SDS011;55400;51.824;-0.196;2022-08-19T02:14:44;3.28;;;1.85;;
68144;SDS011;55400;51.824;-0.196;2022-08-19T02:19:40;3.00;;;1.90;;
68144;SDS011;55400;51.824;-0.196;2022-08-19T02:22:09;5.40;;;1.80;;
68144;SDS011;55400;51.824;-0.196;2022-08-19T02:24:39;3.72;;;1.92;;
68144;SDS011;55400;51.824;-0.196;2022-08-19T02:27:08;3.42;;;2.10;;
68144;SDS011;55400;51.824;-0.196;2022-08-19T02:29:36;4.75;;;1.90;;
68144;SDS011;55400;51.824;-0.196;2022-08-19T02:32:04;4.88;;;1.88;;
68144;SDS011;55400;51.824;-0.196;2022-08-19T02:34:32;2.42;;;1.83;;
68144;SDS011;55400;51.824;-0.196;2022-08-19T02:37:00;5.00;;;1.98;;
68144;SDS011;55400;51.824;-0.196;2022-08-19T02:39:31;4.15;;;2.28;;
68144;SDS011;55400;51.824;-0.196;2022-08-19T02:41:59;3.53;;;1.92;;
68144;SDS011;55400;51.824;-0.196;2022-08-19T02:44:29;5.15;;;2.38;;
68144;SDS011;55400;51.824;-0.196;2022-08-19T02:46:57;5.45;;;2.20;;
68144;SDS011;55400;51.824;-0.196;2022-08-19T02:49:28;5.55;;;2.40;;
68144;SDS011;55400;51.824;-0.196;2022-08-19T02:52:01;3.33;;;1.90;;
68144;SDS011;55400;51.824;-0.196;2022-08-19T02:54:51;3.53;;;2.17;;
68144;SDS011;55400;51.824;-0.196;2022-08-19T02:57:23;5.10;;;2.45;;
68144;SDS011;55400;51.824;-0.196;2022-08-19T02:59:55;4.70;;;1.95;;
68144;SDS011;55400;51.824;-0.196;2022-08-19T03:02:23;2.55;;;2.10;;
68144;SDS011;55400;51.824;-0.196;2022-08-19T03:04:53;4.35;;;2.22;;
68144;SDS011;55400;51.824;-0.196;2022-08-19T03:07:34;6.00;;;2.40;;
68144;SDS011;55400;51.824;-0.196;2022-08-19T03:10:05;4.35;;;2.13;;
68144;SDS011;55400;51.824;-0.196;2022-08-19T03:12:42;5.28;;;2.20;;
68144;SDS011;55400;51.824;-0.196;2022-08-19T03:15:09;4.55;;;2.50;;
68144;SDS011;55400;51.824;-0.196;2022-08-19T03:17:37;6.10;;;2.20;;
68144;SDS011;55400;51.824;-0.196;2022-08-19T03:20:05;5.32;;;2.53;;
68144;SDS011;55400;51.824;-0.196;2022-08-19T03:22:35;5.47;;;2.15;;
68144;SDS011;55400;51.824;-0.196;2022-08-19T03:25:04;7.95;;;2.40;;
68144;SDS011;55400;51.824;-0.196;2022-08-19T03:27:31;6.00;;;2.50;;
68144;SDS011;55400;51.824;-0.196;2022-08-19T03:30:11;3.90;;;2.20;;
68144;SDS011;55400;51.824;-0.196;2022-08-19T03:32:39;4.50;;;2.60;;
68144;SDS011;55400;51.824;-0.196;2022-08-19T03:35:11;4.55;;;2.65;;
68144;SDS011;55400;51.824;-0.196;2022-08-19T03:37:43;3.90;;;2.58;;
68144;SDS011;55400;51.824;-0.196;2022-08-19T03:40:10;4.97;;;2.58;;
68144;SDS011;55400;51.824;-0.196;2022-08-19T03:42:42;2.92;;;2.42;;
68144;SDS011;55400;51.824;-0.196;2022-08-19T03:45:22;6.38;;;2.80;;
68144;SDS011;55400;51.824;-0.196;2022-08-19T03:47:49;3.90;;;2.30;;
68144;SDS011;55400;51.824;-0.196;2022-08-19T03:50:19;6.90;;;3.03;;
68144;SDS011;55400;51.824;-0.196;2022-08-19T03:53:00;6.85;;;2.50;;
68144;SDS011;55400;51.824;-0.196;2022-08-19T03:55:40;4.95;;;2.60;;
68144;SDS011;55400;51.824;-0.196;2022-08-19T03:58:17;7.53;;;3.13;;
68144;SDS011;55400;51.824;-0.196;2022-08-19T04:00:47;7.40;;;2.80;;
68144;SDS011;55400;51.824;-0.196;2022-08-19T04:03:19;4.68;;;2.55;;
68144;SDS011;55400;51.824;-0.196;2022-08-19T04:05:48;5.50;;;2.65;;
68144;SDS011;55400;51.824;-0.196;2022-08-19T04:08:21;5.10;;;2.50;;
68144;SDS011;55400;51.824;-0.196;2022-08-19T04:10:54;6.53;;;2.70;;
68144;SDS011;55400;51.824;-0.196;2022-08-19T04:14:12;3.22;;;2.22;;
68144;SDS011;55400;51.824;-0.196;2022-08-19T04:16:54;7.90;;;2.70;;
68144;SDS011;55400;51.824;-0.196;2022-08-19T04:19:24;10.32;;;2.95;;
68144;SDS011;55400;51.824;-0.196;2022-08-19T04:21:54;5.20;;;2.70;;
68144;SDS011;55400;51.824;-0.196;2022-08-19T04:24:22;4.95;;;2.85;;
68144;SDS011;55400;51.824;-0.196;2022-08-19T04:26:51;5.05;;;2.70;;
68144;SDS011;55400;51.824;-0.196;2022-08-19T04:29:24;5.38;;;2.33;;
68144;SDS011;55400;51.824;-0.196;2022-08-19T04:31:56;8.25;;;2.70;;
68144;SDS011;55400;51.824;-0.196;2022-08-19T04:34:35;7.00;;;2.90;;
68144;SDS011;55400;51.824;-0.196;2022-08-19T04:37:26;6.00;;;2.80;;
68144;SDS011;55400;51.824;-0.196;2022-08-19T04:40:02;4.22;;;2.30;;
68144;SDS011;55400;51.824;-0.196;2022-08-19T04:42:52;3.42;;;2.30;;
68144;SDS011;55400;51.824;-0.196;2022-08-19T04:45:36;5.13;;;2.20;;
68144;SDS011;55400;51.824;-0.196;2022-08-19T04:48:10;3.63;;;2.50;;
68144;SDS011;55400;51.824;-0.196;2022-08-19T04:50:53;4.63;;;2.45;;
68144;SDS011;55400;51.824;-0.196;2022-08-19T04:53:30;6.73;;;2.20;;
68144;SDS011;55400;51.824;-0.196;2022-08-19T04:56:09;3.00;;;2.10;;
68144;SDS011;55400;51.824;-0.196;2022-08-19T04:58:41;4.63;;;2.20;;
68144;SDS011;55400;51.824;-0.196;2022-08-19T05:01:27;5.68;;;2.30;;
68144;SDS011;55400;51.824;-0.196;2022-08-19T05:03:59;3.78;;;2.15;;
68144;SDS011;55400;51.824;-0.196;2022-08-19T05:06:29;3.15;;;1.90;;
68144;SDS011;55400;51.824;-0.196;2022-08-19T05:09:00;3.38;;;1.85;;
68144;SDS011;55400;51.824;-0.196;2022-08-19T05:11:33;3.67;;;1.95;;
68144;SDS011;55400;51.824;-0.196;2022-08-19T05:14:10;6.00;;;1.95;;
68144;SDS011;55400;51.824;-0.196;2022-08-19T05:16:39;2.05;;;1.60;;
68144;SDS011;55400;51.824;-0.196;2022-08-19T05:19:09;4.63;;;1.80;;
68144;SDS011;55400;51.824;-0.196;2022-08-19T05:22:00;4.85;;;1.73;;
68144;SDS011;55400;51.824;-0.196;2022-08-19T05:24:50;4.32;;;1.17;;
68144;SDS011;55400;51.824;-0.196;2022-08-19T05:27:38;1.15;;;0.98;;
68144;SDS011;55400;51.824;-0.196;2022-08-19T05:30:10;2.03;;;1.38;;
68144;SDS011;55400;51.824;-0.196;2022-08-19T05:32:42;1.75;;;1.25;;
68144;SDS011;55400;51.824;-0.196;2022-08-19T05:35:10;2.27;;;1.20;;
68144;SDS011;55400;51.824;-0.196;2022-08-19T05:37:41;1.35;;;0.93;;
68144;SDS011;55400;51.824;-0.196;2022-08-19T05:40:11;8.15;;;1.10;;
68144;SDS011;55400;51.824;-0.196;2022-08-19T05:42:42;2.95;;;1.25;;
68144;SDS011;55400;51.824;-0.196;2022-08-19T05:45:20;3.65;;;1.40;;
68144;SDS011;55400;51.824;-0.196;2022-08-19T05:47:50;2.75;;;1.30;;
68144;SDS011;55400;51.824;-0.196;2022-08-19T05:50:24;3.88;;;1.40;;
68144;SDS011;55400;51.824;-0.196;2022-08-19T05:52:54;2.33;;;1.20;;
68144;SDS011;55400;51.824;-0.196;2022-08-19T05:55:23;1.20;;;1.00;;
68144;SDS011;55400;51.824;-0.196;2022-08-19T05:57:53;2.53;;;1.23;;
68144;SDS011;55400;51.824;-0.196;2022-08-19T06:00:29;1.15;;;1.08;;
68144;SDS011;55400;51.824;-0.196;2022-08-19T06:02:59;0.88;;;0.88;;
68144;SDS011;55400;51.824;-0.196;2022-08-19T06:05:40;1.98;;;1.20;;
68144;SDS011;55400;51.824;-0.196;2022-08-19T06:08:17;1.95;;;0.95;;
68144;SDS011;55400;51.824;-0.196;2022-08-19T06:11:49;1.60;;;1.35;;
68144;SDS011;55400;51.824;-0.196;2022-08-19T06:14:15;3.03;;;1.00;;
68144;SDS011;55400;51.824;-0.196;2022-08-19T06:17:00;3.17;;;1.13;;
68144;SDS011;55400;51.824;-0.196;2022-08-19T06:19:32;1.33;;;0.95;;
68144;SDS011;55400;51.824;-0.196;2022-08-19T06:22:06;1.75;;;1.08;;
68144;SDS011;55400;51.824;-0.196;2022-08-19T06:24:36;1.83;;;1.10;;
68144;SDS011;55400;51.824;-0.196;2022-08-19T06:27:09;9.18;;;1.40;;
68144;SDS011;55400;51.824;-0.196;2022-08-19T06:29:39;3.50;;;1.35;;
68144;SDS011;55400;51.824;-0.196;2022-08-19T06:32:06;1.63;;;1.30;;
68144;SDS011;55400;51.824;-0.196;2022-08-19T06:34:33;0.90;;;0.90;;
68144;SDS011;55400;51.824;-0.196;2022-08-19T06:37:08;1.40;;;1.30;;
68144;SDS011;55400;51.824;-0.196;2022-08-19T06:39:50;1.60;;;1.23;;
68144;SDS011;55400;51.824;-0.196;2022-08-19T06:42:21;3.38;;;1.63;;
68144;SDS011;55400;51.824;-0.196;2022-08-19T06:44:53;4.13;;;1.50;;
68144;SDS011;55400;51.824;-0.196;2022-08-19T06:47:20;1.73;;;1.40;;
68144;SDS011;55400;51.824;-0.196;2022-08-19T06:49:55;2.78;;;1.30;;
68144;SDS011;55400;51.824;-0.196;2022-08-19T06:52:29;2.00;;;1.27;;
68144;SDS011;55400;51.824;-0.196;2022-08-19T06:55:04;3.08;;;1.42;;
68144;SDS011;55400;51.824;-0.196;2022-08-19T06:57:36;3.47;;;1.58;;
68144;SDS011;55400;51.824;-0.196;2022-08-19T07:00:05;3.42;;;1.80;;
68144;SDS011;55400;51.824;-0.196;2022-08-19T07:02:38;4.07;;;1.48;;
68144;SDS011;55400;51.824;-0.196;2022-08-19T07:05:23;1.92;;;1.30;;
68144;SDS011;55400;51.824;-0.196;2022-08-19T07:07:55;2.10;;;1.50;;
68144;SDS011;55400;51.824;-0.196;2022-08-19T07:10:30;1.42;;;0.93;;
68144;SDS011;55400;51.824;-0.196;2022-08-19T07:13:00;1.70;;;1.50;;
68144;SDS011;55400;51.824;-0.196;2022-08-19T07:15:33;2.20;;;1.20;;
68144;SDS011;55400;51.824;-0.196;2022-08-19T07:18:05;4.15;;;1.30;;
68144;SDS011;55400;51.824;-0.196;2022-08-19T07:20:37;1.67;;;1.15;;
68144;SDS011;55400;51.824;-0.196;2022-08-19T07:23:10;5.72;;;1.50;;
68144;SDS011;55400;51.824;-0.196;2022-08-19T07:25:42;3.67;;;1.30;;
68144;SDS011;55400;51.824;-0.196;2022-08-19T07:28:18;1.38;;;1.20;;
68144;SDS011;55400;51.824;-0.196;2022-08-19T07:30:49;1.52;;;1.00;;
68144;SDS011;55400;51.824;-0.196;2022-08-19T07:33:18;4.40;;;1.42;;
68144;SDS011;55400;51.824;-0.196;2022-08-19T07:35:48;2.03;;;1.10;;
68144;SDS011;55400;51.824;-0.196;2022-08-19T07:38:26;3.63;;;1.45;;
68144;SDS011;55400;51.824;-0.196;2022-08-19T07:41:00;6.55;;;1.45;;
68144;SDS011;55400;51.824;-0.196;2022-08-19T07:43:31;7.75;;;2.22;;
68144;SDS011;55400;51.824;-0.196;2022-08-19T07:46:00;5.53;;;1.48;;
68144;SDS011;55400;51.824;-0.196;2022-08-19T07:48:30;3.38;;;1.67;;
68144;SDS011;55400;51.824;-0.196;2022-08-19T07:50:58;3.83;;;1.42;;
68144;SDS011;55400;51.824;-0.196;2022-08-19T07:53:30;4.85;;;1.63;;
68144;SDS011;55400;51.824;-0.196;2022-08-19T07:56:05;7.35;;;1.80;;
68144;SDS011;55400;51.824;-0.196;2022-08-19T07:58:36;4.07;;;1.40;;
68144;SDS011;55400;51.824;-0.196;2022-08-19T08:01:05;7.65;;;1.98;;
68144;SDS011;55400;51.824;-0.196;2022-08-19T08:03:33;6.88;;;2.20;;
68144;SDS011;55400;51.824;-0.196;2022-08-19T08:06:23;3.63;;;1.60;;
68144;SDS011;55400;51.824;-0.196;2022-08-19T08:09:10;3.08;;;1.50;;
68144;SDS011;55400;51.824;-0.196;2022-08-19T08:11:56;7.82;;;1.55;;
68144;SDS011;55400;51.824;-0.196;2022-08-19T08:14:42;4.03;;;1.77;;
68144;SDS011;55400;51.824;-0.196;2022-08-19T08:17:22;4.78;;;1.60;;
68144;SDS011;55400;51.824;-0.196;2022-08-19T08:20:14;4.00;;;1.65;;
68144;SDS011;55400;51.824;-0.196;2022-08-19T08:22:45;2.33;;;1.58;;
68144;SDS011;55400;51.824;-0.196;2022-08-19T08:25:31;8.50;;;1.77;;
68144;SDS011;55400;51.824;-0.196;2022-08-19T08:28:03;2.63;;;1.60;;
68144;SDS011;55400;51.824;-0.196;2022-08-19T08:30:32;4.65;;;1.95;;
68144;SDS011;55400;51.824;-0.196;2022-08-19T08:33:01;7.45;;;2.28;;
68144;SDS011;55400;51.824;-0.196;2022-08-19T08:35:31;4.35;;;1.90;;
68144;SDS011;55400;51.824;-0.196;2022-08-19T08:37:59;7.88;;;2.58;;
68144;SDS011;55400;51.824;-0.196;2022-08-19T08:43:35;6.07;;;2.30;;
68144;SDS011;55400;51.824;-0.196;2022-08-19T08:46:19;3.67;;;1.70;;
68144;SDS011;55400;51.824;-0.196;2022-08-19T08:52:41;4.20;;;1.50;;
68144;SDS011;55400;51.824;-0.196;2022-08-19T08:55:00;2.85;;;1.70;;
68144;SDS011;55400;51.824;-0.196;2022-08-19T09:00:34;3.10;;;1.70;;
68144;SDS011;55400;51.824;-0.196;2022-08-19T09:03:10;6.47;;;2.25;;
68144;SDS011;55400;51.824;-0.196;2022-08-19T09:06:32;6.70;;;1.80;;
68144;SDS011;55400;51.824;-0.196;2022-08-19T09:12:18;4.90;;;2.08;;
68144;SDS011;55400;51.824;-0.196;2022-08-19T09:15:09;6.50;;;1.98;;
68144;SDS011;55400;51.824;-0.196;2022-08-19T09:17:40;5.93;;;2.13;;
68144;SDS011;55400;51.824;-0.196;2022-08-19T09:20:22;8.70;;;2.20;;
68144;SDS011;55400;51.824;-0.196;2022-08-19T09:22:58;4.60;;;1.95;;
68144;SDS011;55400;51.824;-0.196;2022-08-19T09:25:33;7.80;;;1.92;;
68144;SDS011;55400;51.824;-0.196;2022-08-19T09:28:03;7.03;;;2.03;;
68144;SDS011;55400;51.824;-0.196;2022-08-19T09:30:48;9.13;;;1.90;;
68144;SDS011;55400;51.824;-0.196;2022-08-19T09:33:22;4.97;;;1.58;;
68144;SDS011;55400;51.824;-0.196;2022-08-19T09:36:06;4.65;;;1.88;;
68144;SDS011;55400;51.824;-0.196;2022-08-19T09:38:56;6.68;;;1.70;;
68144;SDS011;55400;51.824;-0.196;2022-08-19T09:41:28;3.00;;;1.58;;
68144;SDS011;55400;51.824;-0.196;2022-08-19T09:43:59;6.25;;;1.52;;
68144;SDS011;55400;51.824;-0.196;2022-08-19T09:46:29;7.53;;;1.70;;
68144;SDS011;55400;51.824;-0.196;2022-08-19T09:49:01;7.53;;;1.83;;
68144;SDS011;55400;51.824;-0.196;2022-08-19T09:51:36;4.22;;;1.60;;
68144;SDS011;55400;51.824;-0.196;2022-08-19T09:54:06;5.00;;;1.70;;
68144;SDS011;55400;51.824;-0.196;2022-08-19T09:56:36;3.03;;;1.50;;
68144;SDS011;55400;51.824;-0.196;2022-08-19T09:59:09;5.68;;;2.15;;
68144;SDS011;55400;51.824;-0.196;2022-08-19T10:01:40;7.82;;;1.83;;
68144;SDS011;55400;51.824;-0.196;2022-08-19T10:04:09;4.50;;;1.73;;
68144;SDS011;55400;51.824;-0.196;2022-08-19T10:06:47;6.18;;;1.90;;
68144;SDS011;55400;51.824;-0.196;2022-08-19T10:09:23;7.28;;;1.90;;
68144;SDS011;55400;51.824;-0.196;2022-08-19T10:12:02;7.63;;;1.58;;
68144;SDS011;55400;51.824;-0.196;2022-08-19T10:14:36;4.63;;;1.20;;
68144;SDS011;55400;51.824;-0.196;2022-08-19T10:17:07;4.32;;;1.77;;
68144;SDS011;55400;51.824;-0.196;2022-08-19T10:19:47;4.43;;;1.67;;
68144;SDS011;55400;51.824;-0.196;2022-08-19T10:22:21;3.25;;;1.40;;
68144;SDS011;55400;51.824;-0.196;2022-08-19T10:24:51;5.13;;;1.67;;
68144;SDS011;55400;51.824;-0.196;2022-08-19T10:27:23;8.77;;;1.88;;
68144;SDS011;55400;51.824;-0.196;2022-08-19T10:29:54;5.47;;;1.70;;
68144;SDS011;55400;51.824;-0.196;2022-08-19T10:32:26;2.92;;;1.45;;
68144;SDS011;55400;51.824;-0.196;2022-08-19T10:34:59;9.48;;;1.80;;
68144;SDS011;55400;51.824;-0.196;2022-08-19T10:37:41;7.40;;;1.95;;
68144;SDS011;55400;51.824;-0.196;2022-08-19T10:40:22;7.30;;;1.85;;
68144;SDS011;55400;51.824;-0.196;2022-08-19T10:42:58;8.77;;;1.90;;
68144;SDS011;55400;51.824;-0.196;2022-08-19T10:45:27;8.27;;;2.83;;
68144;SDS011;55400;51.824;-0.196;2022-08-19T10:48:17;10.93;;;2.47;;
68144;SDS011;55400;51.824;-0.196;2022-08-19T10:50:49;7.90;;;2.17;;
68144;SDS011;55400;51.824;-0.196;2022-08-19T10:53:48;8.13;;;2.22;;
68144;SDS011;55400;51.824;-0.196;2022-08-19T10:56:18;7.40;;;2.22;;
68144;SDS011;55400;51.824;-0.196;2022-08-19T10:59:05;7.30;;;1.98;;
68144;SDS011;55400;51.824;-0.196;2022-08-19T11:01:33;8.77;;;2.00;;
68144;SDS011;55400;51.824;-0.196;2022-08-19T11:04:11;13.15;;;2.78;;
68144;SDS011;55400;51.824;-0.196;2022-08-19T11:06:54;11.25;;;2.55;;
68144;SDS011;55400;51.824;-0.196;2022-08-19T11:09:24;6.32;;;2.20;;
68144;SDS011;55400;51.824;-0.196;2022-08-19T11:11:59;9.85;;;2.75;;
68144;SDS011;55400;51.824;-0.196;2022-08-19T11:14:30;9.20;;;2.83;;
68144;SDS011;55400;51.824;-0.196;2022-08-19T11:17:07;10.55;;;2.47;;
68144;SDS011;55400;51.824;-0.196;2022-08-19T11:19:36;6.00;;;2.33;;
68144;SDS011;55400;51.824;-0.196;2022-08-19T11:22:13;7.38;;;2.38;;
68144;SDS011;55400;51.824;-0.196;2022-08-19T11:25:01;10.05;;;2.33;;
68144;SDS011;55400;51.824;-0.196;2022-08-19T11:27:33;7.93;;;2.22;;
68144;SDS011;55400;51.824;-0.196;2022-08-19T11:30:08;9.27;;;2.70;;
68144;SDS011;55400;51.824;-0.196;2022-08-19T11:32:39;11.43;;;2.25;;
68144;SDS011;55400;51.824;-0.196;2022-08-19T11:35:16;17.02;;;3.08;;
68144;SDS011;55400;51.824;-0.196;2022-08-19T11:37:47;8.38;;;2.67;;
68144;SDS011;55400;51.824;-0.196;2022-08-19T11:42:42;12.90;;;3.05;;
68144;SDS011;55400;51.824;-0.196;2022-08-19T11:45:26;8.60;;;2.50;;
68144;SDS011;55400;51.824;-0.196;2022-08-19T11:47:56;12.57;;;2.38;;
68144;SDS011;55400;51.824;-0.196;2022-08-19T11:50:27;13.30;;;2.55;;
68144;SDS011;55400;51.824;-0.196;2022-08-19T11:52:56;11.70;;;2.80;;
68144;SDS011;55400;51.824;-0.196;2022-08-19T11:55:24;8.65;;;2.40;;
68144;SDS011;55400;51.824;-0.196;2022-08-19T12:02:49;13.80;;;3.03;;
68144;SDS011;55400;51.824;-0.196;2022-08-19T12:05:22;9.20;;;2.33;;
68144;SDS011;55400;51.824;-0.196;2022-08-19T12:07:54;10.52;;;2.60;;
68144;SDS011;55400;51.824;-0.196;2022-08-19T12:10:30;16.80;;;2.67;;
68144;SDS011;55400;51.824;-0.196;2022-08-19T12:12:59;10.68;;;2.45;;
68144;SDS011;55400;51.824;-0.196;2022-08-19T12:15:39;14.50;;;2.40;;
68144;SDS011;55400;51.824;-0.196;2022-08-19T12:18:08;8.38;;;2.17;;
68144;SDS011;55400;51.824;-0.196;2022-08-19T12:20:37;7.53;;;2.53;;
68144;SDS011;55400;51.824;-0.196;2022-08-19T12:23:08;8.43;;;2.78;;
68144;SDS011;55400;51.824;-0.196;2022-08-19T12:25:42;8.90;;;2.60;;
68144;SDS011;55400;51.824;-0.196;2022-08-19T12:28:27;8.07;;;2.08;;
68144;SDS011;55400;51.824;-0.196;2022-08-19T12:30:56;10.93;;;2.20;;
68144;SDS011;55400;51.824;-0.196;2022-08-19T12:33:23;8.20;;;2.25;;
68144;SDS011;55400;51.824;-0.196;2022-08-19T12:35:54;7.90;;;2.60;;
68144;SDS011;55400;51.824;-0.196;2022-08-19T12:38:38;8.82;;;2.67;;
68144;SDS011;55400;51.824;-0.196;2022-08-19T12:41:09;8.30;;;2.30;;
68144;SDS011;55400;51.824;-0.196;2022-08-19T12:43:40;5.15;;;2.05;;
68144;SDS011;55400;51.824;-0.196;2022-08-19T12:46:10;6.28;;;2.05;;
68144;SDS011;55400;51.824;-0.196;2022-08-19T12:51:21;15.82;;;2.80;;
68144;SDS011;55400;51.824;-0.196;2022-08-19T12:53:51;10.25;;;2.47;;
68144;SDS011;55400;51.824;-0.196;2022-08-19T12:56:20;9.23;;;2.28;;
68144;SDS011;55400;51.824;-0.196;2022-08-19T12:58:48;7.13;;;2.53;;
68144;SDS011;55400;51.824;-0.196;2022-08-19T13:01:21;11.73;;;2.30;;
68144;SDS011;55400;51.824;-0.196;2022-08-19T13:03:54;8.70;;;3.45;;
68144;SDS011;55400;51.824;-0.196;2022-08-19T13:06:22;7.60;;;2.17;;
68144;SDS011;55400;51.824;-0.196;2022-08-19T13:08:52;7.32;;;2.20;;
68144;SDS011;55400;51.824;-0.196;2022-08-19T13:11:24;8.00;;;3.08;;
68144;SDS011;55400;51.824;-0.196;2022-08-19T13:13:57;13.68;;;3.10;;
68144;SDS011;55400;51.824;-0.196;2022-08-19T13:16:26;6.40;;;2.20;;
68144;SDS011;55400;51.824;-0.196;2022-08-19T13:19:01;9.02;;;2.90;;
68144;SDS011;55400;51.824;-0.196;2022-08-19T13:21:32;7.03;;;2.10;;
68144;SDS011;55400;51.824;-0.196;2022-08-19T13:24:02;9.05;;;2.70;;
68144;SDS011;55400;51.824;-0.196;2022-08-19T13:26:34;10.95;;;2.47;;
68144;SDS011;55400;51.824;-0.196;2022-08-19T13:29:03;14.50;;;2.55;;
68144;SDS011;55400;51.824;-0.196;2022-08-19T13:31:50;11.48;;;1.98;;
68144;SDS011;55400;51.824;-0.196;2022-08-19T13:34:41;7.00;;;1.95;;
68144;SDS011;55400;51.824;-0.196;2022-08-19T13:37:08;9.03;;;2.73;;
68144;SDS011;55400;51.824;-0.196;2022-08-19T13:39:38;9.57;;;2.33;;
68144;SDS011;55400;51.824;-0.196;2022-08-19T13:42:07;9.68;;;2.15;;
68144;SDS011;55400;51.824;-0.196;2022-08-19T13:44:36;9.07;;;2.65;;
68144;SDS011;55400;51.824;-0.196;2022-08-19T13:47:05;7.10;;;2.45;;
68144;SDS011;55400;51.824;-0.196;2022-08-19T13:49:38;12.77;;;1.95;;
68144;SDS011;55400;51.824;-0.196;2022-08-19T13:52:08;8.13;;;2.20;;
68144;SDS011;55400;51.824;-0.196;2022-08-19T13:54:35;9.07;;;2.60;;
68144;SDS011;55400;51.824;-0.196;2022-08-19T13:57:01;10.05;;;2.20;;
68144;SDS011;55400;51.824;-0.196;2022-08-19T13:59:28;6.70;;;2.55;;
68144;SDS011;55400;51.824;-0.196;2022-08-19T14:01:58;9.57;;;2.38;;
68144;SDS011;55400;51.824;-0.196;2022-08-19T14:04:26;5.82;;;2.47;;
68144;SDS011;55400;51.824;-0.196;2022-08-19T14:06:53;9.82;;;2.65;;
68144;SDS011;55400;51.824;-0.196;2022-08-19T14:09:20;8.13;;;2.60;;
68144;SDS011;55400;51.824;-0.196;2022-08-19T14:11:46;7.90;;;2.50;;
68144;SDS011;55400;51.824;-0.196;2022-08-19T14:14:13;12.07;;;2.38;;
68144;SDS011;55400;51.824;-0.196;2022-08-19T14:16:41;7.97;;;2.58;;
68144;SDS011;55400;51.824;-0.196;2022-08-19T14:19:09;9.73;;;2.30;;
68144;SDS011;55400;51.824;-0.196;2022-08-19T14:21:35;8.57;;;2.03;;
68144;SDS011;55400;51.824;-0.196;2022-08-19T14:24:07;7.78;;;2.33;;
68144;SDS011;55400;51.824;-0.196;2022-08-19T14:26:34;12.65;;;2.60;;
68144;SDS011;55400;51.824;-0.196;2022-08-19T14:29:01;12.07;;;2.70;;
68144;SDS011;55400;51.824;-0.196;2022-08-19T14:31:28;6.85;;;2.13;;
68144;SDS011;55400;51.824;-0.196;2022-08-19T14:33:56;7.00;;;2.55;;
68144;SDS011;55400;51.824;-0.196;2022-08-19T14:36:23;9.65;;;2.25;;
68144;SDS011;55400;51.824;-0.196;2022-08-19T14:38:50;8.93;;;3.40;;
68144;SDS011;55400;51.824;-0.196;2022-08-19T14:41:20;6.55;;;2.60;;
68144;SDS011;55400;51.824;-0.196;2022-08-19T14:43:49;6.10;;;2.22;;
68144;SDS011;55400;51.824;-0.196;2022-08-19T14:46:21;9.80;;;2.30;;
68144;SDS011;55400;51.824;-0.196;2022-08-19T14:48:53;6.78;;;1.90;;
68144;SDS011;55400;51.824;-0.196;2022-08-19T14:51:22;9.88;;;2.42;;
68144;SDS011;55400;51.824;-0.196;2022-08-19T14:53:50;14.73;;;2.80;;
68144;SDS011;55400;51.824;-0.196;2022-08-19T14:56:19;10.48;;;2.67;;
68144;SDS011;55400;51.824;-0.196;2022-08-19T14:58:49;8.15;;;2.90;;
68144;SDS011;55400;51.824;-0.196;2022-08-19T15:01:19;11.13;;;3.28;;
68144;SDS011;55400;51.824;-0.196;2022-08-19T15:03:49;10.30;;;2.45;;
68144;SDS011;55400;51.824;-0.196;2022-08-19T15:06:16;8.88;;;2.40;;
68144;SDS011;55400;51.824;-0.196;2022-08-19T15:08:42;8.32;;;2.47;;
68144;SDS011;55400;51.824;-0.196;2022-08-19T15:13:41;13.88;;;4.10;;
68144;SDS011;55400;51.824;-0.196;2022-08-19T15:16:08;7.10;;;2.75;;
68144;SDS011;55400;51.824;-0.196;2022-08-19T15:18:43;11.82;;;2.80;;
68144;SDS011;55400;51.824;-0.196;2022-08-19T15:21:12;12.60;;;3.95;;
68144;SDS011;55400;51.824;-0.196;2022-08-19T15:23:41;11.82;;;2.83;;
68144;SDS011;55400;51.824;-0.196;2022-08-19T15:26:10;15.00;;;3.22;;
68144;SDS011;55400;51.824;-0.196;2022-08-19T15:28:41;9.18;;;3.45;;
68144;SDS011;55400;51.824;-0.196;2022-08-19T15:31:08;9.90;;;2.30;;
68144;SDS011;55400;51.824;-0.196;2022-08-19T15:33:50;10.27;;;2.60;;
68144;SDS011;55400;51.824;-0.196;2022-08-19T15:36:17;9.35;;;2.40;;
68144;SDS011;55400;51.824;-0.196;2022-08-19T15:38:44;12.27;;;2.28;;
68144;SDS011;55400;51.824;-0.196;2022-08-19T15:41:17;6.40;;;2.50;;